Station: Alva Beach  

  Atmospheric Gas Attenuation - ITU Rec 676-11   ----------------- dB/100km -----------------
Date Time Temp RH % AH g/m3 Dew Point Wind Direction Speed kph Gust kph Barometer mB Rainfall Since 9am 24GHz 47GHz 76GHz 122GHz 134GHz 241GHz
04/09 15:50 23.7 73 15.61 18.6 15 19 1018.5 0 33.9 34.6 63.2 166.9 178.4 618.9
04/09 15:40 23.9 74 16.01 19 15 20 1018.5 0 34.7 35.2 64.8 171.2 183.7 637.5
04/09 15:30 24.2 75 16.5 19.5 15 20 1018.6 0 35.7 36.0 66.7 176.3 190.1 659.9
04/09 15:20 23.9 74 16.01 19 15 20 1018.7 0 34.7 35.2 64.8 171.2 183.7 637.6
04/09 15:10 23.9 74 16.01 19 13 19 1018.8 0 34.7 35.3 64.8 171.2 183.7 637.6
04/09 15:00 24.3 73 16.15 19.1 13 17 1018.9 0 34.9 35.3 65.1 172.0 184.8 641.4
04/09 14:50 24.5 72 16.11 19.1 13 20 1018.9 0 34.8 35.2 64.8 171.1 183.7 637.7
04/09 14:40 24.4 73 16.25 19.2 13 19 1019 0 35.1 35.5 65.5 173.0 186.0 645.7
04/09 14:30 24.1 74 16.19 19.2 13 19 1019.1 0 35.0 35.5 65.5 172.9 185.9 645.2
04/09 14:20 24.3 72 15.93 18.9 13 19 1019.2 0 34.5 35.0 64.2 169.4 181.6 630.5
04/09 14:10 24.6 74 16.65 19.7 13 20 1019.3 0 36.0 36.1 67.1 177.3 191.4 664.5
04/09 14:00 24.6 72 16.2 19.2 13 19 1019.4 0 35.0 35.3 65.1 172.0 184.8 641.7
04/09 13:50 24.5 73 16.34 19.3 13 20 1019.5 0 35.3 35.6 65.8 173.9 187.1 649.6
04/09 13:40 24.7 72 16.3 19.3 13 19 1019.7 0 35.2 35.5 65.5 173.0 186.1 646.0
04/09 13:30 24.4 71 15.8 18.8 13 19 1019.8 0 34.2 34.7 63.5 167.8 179.6 623.4
04/09 13:20 24.9 71 16.25 19.3 13 19 1020 0 35.1 35.3 65.1 172.0 184.9 642.0
04/09 13:10 24.7 69 15.62 18.6 11 19 1020.1 0 33.8 34.3 62.5 165.1 176.4 612.2
04/09 13:00 25.1 69 15.97 19 13 20 1020.2 0 34.5 34.7 63.7 168.3 180.4 626.4
04/09 12:50 25 71 16.34 19.4 11 17 1020.3 0 35.3 35.4 65.4 172.9 186.0 645.8
04/09 12:40 24.4 71 15.8 18.8 13 19 1020.4 0 34.2 34.7 63.6 167.9 179.7 623.7
04/09 12:30 24.9 73 16.71 19.7 13 20 1020.6 0 36.1 36.2 67.2 177.5 191.7 665.5
04/09 12:20 24.8 71 16.16 19.2 11 17 1020.8 0 34.9 35.2 64.8 171.3 184.0 638.6
04/09 12:10 24.5 71 15.89 18.9 13 19 1020.9 0 34.4 34.9 63.9 168.8 180.8 627.6
04/09 12:00 24.9 71 16.25 19.3 13 19 1021 0 35.1 35.4 65.2 172.1 185.0 642.4
04/09 11:50 24.5 70 15.67 18.7 11 17 1021.2 0 33.9 34.5 63.0 166.2 177.7 616.7
04/09 11:40 24.6 73 16.43 19.4 11 17 1021.3 0 35.5 35.8 66.2 175.0 188.4 654.2
04/09 11:30 24.5 71 15.89 18.9 11 17 1021.5 0 34.4 34.9 63.9 168.9 180.9 627.9
04/09 11:20 25.1 72 16.67 19.7 11 17 1021.7 0 36.0 36.1 66.9 176.7 190.7 662.3
04/09 11:10 24.4 71 15.8 18.8 11 17 1021.8 0 34.2 34.8 63.6 168.1 179.9 624.3
04/09 11:00 24.2 71 15.62 18.6 11 17 1021.9 0 33.8 34.6 63.0 166.4 177.8 616.9
04/09 10:50 25 70 16.11 19.1 11 17 1022 0 34.8 35.1 64.5 170.4 182.9 635.0
04/09 10:40 24.6 73 16.43 19.4 13 19 1022.2 0 35.5 35.9 66.3 175.1 188.6 654.6
04/09 10:30 24.8 73 16.62 19.6 11 17 1022.3 0 35.9 36.1 67.0 176.9 190.8 662.6
04/09 10:20 24.2 73 16.06 19.1 13 19 1022.4 0 34.7 35.4 65.0 171.6 184.2 639.3
04/09 10:10 24.2 74 16.28 19.3 13 20 1022.4 0 35.2 35.8 66.0 174.2 187.4 650.5
04/09 10:00 24.3 74 16.37 19.4 13 17 1022.4 0 35.4 35.9 66.3 175.1 188.5 654.2
04/09 09:50 24.1 75 16.41 19.4 11 19 1022.4 0 35.5 36.0 66.6 176.0 189.5 658.0
04/09 09:40 24.2 77 16.94 19.9 13 20 1022.5 0 36.6 37.0 69.0 182.2 197.1 684.4
04/09 09:30 23.8 76 16.35 19.3 13 20 1022.5 0 35.4 36.1 66.6 176.0 189.4 657.5
04/09 09:20 24.1 74 16.19 19.2 11 17 1022.5 0 35.0 35.6 65.7 173.4 186.3 646.8
04/09 09:10 24.6 74 16.65 19.7 13 19 1022.4 0 36.0 36.3 67.3 177.7 191.8 665.9
04/09 09:00 24 70 15.23 18.2 11 17 1022.3 0 33.0 34.0 61.5 162.3 172.7 599.3
04/09 08:50 24.1 72 15.75 18.7 11 17 1022.4 0 34.1 34.9 63.7 168.2 179.9 624.5
04/09 08:40 23.8 71 15.27 18.2 11 17 1022.4 0 33.1 34.1 61.8 163.2 173.7 602.8
04/09 08:30 23.7 72 15.4 18.4 11 17 1022.3 0 33.4 34.4 62.5 165.0 175.8 610.1
04/09 08:20 23.5 76 16.07 19 7 13 1022.2 0 34.8 35.7 65.6 173.3 186.0 645.6
04/09 08:10 21.9 84 16.21 19.1 2 9 1022.2 0 35.3 36.6 67.7 178.7 192.1 666.6
04/09 08:00 20.6 90 16.11 18.9 6 7 1022.1 0 35.2 37.0 68.3 180.5 193.9 672.7
04/09 07:50 19.6 93 15.7 18.4 7 11 1022.1 0 34.4 36.6 67.3 177.7 190.2 659.6
04/09 07:40 18.9 95 15.39 18.1 7 9 1022 0 33.8 36.4 66.5 175.5 187.2 649.0
04/09 07:30 18.2 95 14.76 17.4 9 11 1021.9 0 32.5 35.5 64.1 169.2 179.2 621.2
04/09 07:20 17.9 96 14.66 17.3 9 11 1021.8 0 32.3 35.4 63.9 168.6 178.4 618.3
04/09 07:10 17.4 96 14.23 16.8 7 11 1021.8 0 31.4 34.8 62.3 164.4 173.0 599.5
04/09 07:00 16.7 96 13.64 16.1 9 11 1021.8 0 30.2 34.0 60.1 158.6 165.7 573.7
04/09 06:50 16.4 96 13.4 15.8 7 11 1021.7 0 29.7 33.7 59.3 156.2 162.7 563.3
04/09 06:40 16.3 96 13.32 15.7 9 11 1021.5 0 29.5 33.5 59.0 155.4 161.7 559.8
04/09 06:30 16.4 95 13.26 15.6 9 11 1021.3 0 29.4 33.4 58.6 154.5 160.5 555.9
04/09 06:20 16.4 95 13.26 15.6 9 11 1021.2 0 29.4 33.4 58.6 154.5 160.5 555.8
04/09 06:10 16.4 95 13.26 15.6 9 13 1021.2 0 29.4 33.4 58.6 154.5 160.5 555.8
04/09 06:00 16.6 95 13.42 15.8 9 11 1021 0 29.7 33.6 59.2 156.0 162.5 562.6
04/09 05:50 16.7 94 13.36 15.7 7 11 1020.9 0 29.6 33.4 58.8 155.0 161.4 558.7
04/09 05:40 16.7 94 13.36 15.7 6 9 1020.9 0 29.6 33.4 58.8 155.0 161.4 558.7
04/09 05:30 16.9 94 13.52 15.9 6 9 1020.8 0 29.9 33.6 59.4 156.6 163.3 565.5
04/09 05:20 16.9 93 13.38 15.8 6 9 1020.6 0 29.6 33.4 58.7 154.8 161.2 558.2
04/09 05:10 17 93 13.46 15.9 6 9 1020.4 0 29.8 33.5 59.0 155.6 162.1 561.5
04/09 05:00 17 92 13.31 15.7 6 7 1020.3 0 29.5 33.2 58.3 153.7 159.9 553.7
04/09 04:50 17.1 91 13.25 15.6 6 7 1020.3 0 29.3 33.1 58.0 152.8 158.8 549.8
04/09 04:40 17.4 91 13.49 15.9 6 7 1020.2 0 29.8 33.4 58.8 155.1 161.7 560.0
04/09 04:30 17.5 89 13.27 15.7 6 15 1020.1 0 29.4 32.9 57.7 152.2 158.2 547.9
04/09 04:20 17.9 88 13.44 15.9 9 17 1020 0 29.7 33.1 58.2 153.5 159.9 553.7
04/09 04:10 18.4 86 13.53 16 7 15 1020 0 29.8 33.0 58.2 153.5 160.1 554.7
04/09 04:00 19.1 84 13.77 16.3 9 15 1020 0 30.3 33.2 58.8 155.0 162.2 561.9
04/09 03:50 20.5 86 15.3 18.1 13 17 1020 0 33.5 35.4 64.6 170.4 181.6 629.9
04/09 03:40 20.5 85 15.12 17.9 13 17 1020 0 33.1 35.1 63.7 168.2 178.9 620.5
04/09 03:30 20.6 85 15.21 18 15 19 1020.1 0 33.3 35.2 64.1 169.1 180.0 624.4
04/09 03:20 20.7 85 15.3 18.1 15 17 1020.1 0 33.4 35.3 64.4 170.0 181.1 628.2
04/09 03:10 20.8 86 15.57 18.4 15 17 1020.2 0 34.0 35.8 65.5 173.1 185.0 641.5
04/09 03:00 20.8 85 15.39 18.2 15 17 1020.2 0 33.6 35.5 64.7 170.9 182.3 632.1
04/09 02:50 20.7 85 15.3 18.1 15 19 1020.3 0 33.4 35.4 64.4 170.0 181.2 628.3
04/09 02:40 20.7 85 15.3 18.1 13 19 1020.4 0 33.4 35.4 64.4 170.0 181.2 628.4
04/09 02:30 20.9 85 15.48 18.3 17 19 1020.4 0 33.8 35.6 65.1 171.8 183.4 636.1
04/09 02:20 21 85 15.57 18.4 15 19 1020.4 0 34.0 35.7 65.4 172.7 184.5 640.0
04/09 02:10 21 85 15.57 18.4 17 20 1020.5 0 34.0 35.7 65.4 172.7 184.5 640.0
04/09 02:00 21 85 15.57 18.4 15 20 1020.6 0 34.0 35.7 65.4 172.7 184.5 640.0
04/09 01:50 21 84 15.39 18.2 17 19 1020.7 0 33.6 35.4 64.6 170.5 181.8 630.7
04/09 01:40 21 85 15.57 18.4 15 20 1020.8 0 34.0 35.7 65.4 172.7 184.5 640.1
04/09 01:30 21.1 85 15.66 18.5 15 20 1020.9 0 34.2 35.9 65.7 173.6 185.7 644.0
04/09 01:20 21.1 85 15.66 18.5 17 20 1021 0 34.2 35.9 65.8 173.6 185.7 644.1
04/09 01:10 21.1 85 15.66 18.5 17 22 1021.1 0 34.2 35.9 65.8 173.6 185.7 644.1
04/09 01:00 21.1 85 15.66 18.5 17 24 1021.2 0 34.2 35.9 65.8 173.6 185.7 644.2
04/09 00:50 21.1 86 15.84 18.7 15 19 1021.3 0 34.6 36.2 66.6 175.9 188.4 653.7
04/09 00:40 21.1 85 15.66 18.5 15 19 1021.3 0 34.2 35.9 65.8 173.7 185.7 644.2
04/09 00:30 21.1 85 15.66 18.5 15 20 1021.4 0 34.2 35.9 65.8 173.7 185.7 644.3
04/09 00:20 21.1 85 15.66 18.5 15 20 1021.5 0 34.2 35.9 65.8 173.7 185.7 644.3
04/09 00:10 21.2 85 15.75 18.6 15 19 1021.6 0 34.4 36.0 66.1 174.6 186.9 648.2
04/09 00:00 21.1 86 15.84 18.7 13 17 1021.7 0 34.6 36.2 66.6 175.9 188.5 653.8
03/09 23:50 21.1 86 15.84 18.7 13 19 1021.6 0 34.6 36.2 66.6 175.9 188.5 653.8
03/09 23:40 21.1 87 16.03 18.9 13 17 1021.6 0 35.0 36.6 67.5 178.2 191.3 663.8
03/09 23:30 21 87 15.94 18.8 11 17 1021.7 0 34.8 36.5 67.2 177.4 190.2 660.0
03/09 23:20 20.9 87 15.84 18.7 11 17 1021.7 0 34.6 36.3 66.8 176.4 189.0 655.6

Last Refresh: 04-Sep-2026 15:29:46

Bureau of Meteorology